sensor_id;sensor_type;location;lat;lon;timestamp;P1;durP1;ratioP1;P2;durP2;ratioP2
67378;SDS011;54262;44.642;-0.974;2023-01-05T00:00:59;7.95;;;4.00;;
67378;SDS011;54262;44.642;-0.974;2023-01-05T00:03:25;8.25;;;4.93;;
67378;SDS011;54262;44.642;-0.974;2023-01-05T00:05:51;4.57;;;4.05;;
67378;SDS011;54262;44.642;-0.974;2023-01-05T00:08:17;5.40;;;3.85;;
67378;SDS011;54262;44.642;-0.974;2023-01-05T00:10:43;5.13;;;3.25;;
67378;SDS011;54262;44.642;-0.974;2023-01-05T00:13:30;7.40;;;3.90;;
67378;SDS011;54262;44.642;-0.974;2023-01-05T00:16:14;8.75;;;4.05;;
67378;SDS011;54262;44.642;-0.974;2023-01-05T00:21:44;6.07;;;3.88;;
67378;SDS011;54262;44.642;-0.974;2023-01-05T00:24:28;10.02;;;3.80;;
67378;SDS011;54262;44.642;-0.974;2023-01-05T00:26:56;6.07;;;3.72;;
67378;SDS011;54262;44.642;-0.974;2023-01-05T00:29:22;9.38;;;4.80;;
67378;SDS011;54262;44.642;-0.974;2023-01-05T00:31:48;6.45;;;4.18;;
67378;SDS011;54262;44.642;-0.974;2023-01-05T00:34:14;4.45;;;3.75;;
67378;SDS011;54262;44.642;-0.974;2023-01-05T00:36:40;6.88;;;4.05;;
67378;SDS011;54262;44.642;-0.974;2023-01-05T00:39:06;5.90;;;3.85;;
67378;SDS011;54262;44.642;-0.974;2023-01-05T00:41:32;5.07;;;4.05;;
67378;SDS011;54262;44.642;-0.974;2023-01-05T00:43:58;6.57;;;3.70;;
67378;SDS011;54262;44.642;-0.974;2023-01-05T00:46:24;6.72;;;3.05;;
67378;SDS011;54262;44.642;-0.974;2023-01-05T00:48:50;9.80;;;3.55;;
67378;SDS011;54262;44.642;-0.974;2023-01-05T00:51:16;11.85;;;3.40;;
67378;SDS011;54262;44.642;-0.974;2023-01-05T00:53:42;4.47;;;3.60;;
67378;SDS011;54262;44.642;-0.974;2023-01-05T00:56:08;4.30;;;3.90;;
67378;SDS011;54262;44.642;-0.974;2023-01-05T00:58:34;5.40;;;3.90;;
67378;SDS011;54262;44.642;-0.974;2023-01-05T01:01:00;7.72;;;3.92;;
67378;SDS011;54262;44.642;-0.974;2023-01-05T01:03:26;5.32;;;4.35;;
67378;SDS011;54262;44.642;-0.974;2023-01-05T01:05:56;7.43;;;4.18;;
67378;SDS011;54262;44.642;-0.974;2023-01-05T01:08:22;5.80;;;4.07;;
67378;SDS011;54262;44.642;-0.974;2023-01-05T01:10:48;7.70;;;3.42;;
67378;SDS011;54262;44.642;-0.974;2023-01-05T01:13:14;5.40;;;3.10;;
67378;SDS011;54262;44.642;-0.974;2023-01-05T01:15:40;5.32;;;3.55;;
67378;SDS011;54262;44.642;-0.974;2023-01-05T01:18:06;7.55;;;3.60;;
67378;SDS011;54262;44.642;-0.974;2023-01-05T01:20:32;5.78;;;3.45;;
67378;SDS011;54262;44.642;-0.974;2023-01-05T01:22:58;3.65;;;3.17;;
67378;SDS011;54262;44.642;-0.974;2023-01-05T01:25:27;5.30;;;3.53;;
67378;SDS011;54262;44.642;-0.974;2023-01-05T01:27:53;2.45;;;2.25;;
67378;SDS011;54262;44.642;-0.974;2023-01-05T01:30:19;5.35;;;2.80;;
67378;SDS011;54262;44.642;-0.974;2023-01-05T01:32:45;6.47;;;3.38;;
67378;SDS011;54262;44.642;-0.974;2023-01-05T01:35:11;4.07;;;2.78;;
67378;SDS011;54262;44.642;-0.974;2023-01-05T01:37:38;3.33;;;2.95;;
67378;SDS011;54262;44.642;-0.974;2023-01-05T01:40:04;7.75;;;3.55;;
67378;SDS011;54262;44.642;-0.974;2023-01-05T01:42:30;5.85;;;3.30;;
67378;SDS011;54262;44.642;-0.974;2023-01-05T01:44:57;8.65;;;3.70;;
67378;SDS011;54262;44.642;-0.974;2023-01-05T01:47:26;3.90;;;2.97;;
67378;SDS011;54262;44.642;-0.974;2023-01-05T01:49:54;3.38;;;3.08;;
67378;SDS011;54262;44.642;-0.974;2023-01-05T01:52:22;8.57;;;3.67;;
67378;SDS011;54262;44.642;-0.974;2023-01-05T01:54:49;4.93;;;3.13;;
67378;SDS011;54262;44.642;-0.974;2023-01-05T01:57:16;3.58;;;2.70;;
67378;SDS011;54262;44.642;-0.974;2023-01-05T01:59:42;5.20;;;3.17;;
67378;SDS011;54262;44.642;-0.974;2023-01-05T02:02:08;5.93;;;3.03;;
67378;SDS011;54262;44.642;-0.974;2023-01-05T02:04:35;5.10;;;3.25;;
67378;SDS011;54262;44.642;-0.974;2023-01-05T02:07:02;3.85;;;3.22;;
67378;SDS011;54262;44.642;-0.974;2023-01-05T02:09:28;3.60;;;3.30;;
67378;SDS011;54262;44.642;-0.974;2023-01-05T02:12:57;4.15;;;3.40;;
67378;SDS011;54262;44.642;-0.974;2023-01-05T02:40:46;19.85;;;6.22;;
67378;SDS011;54262;44.642;-0.974;2023-01-05T02:43:14;28.73;;;5.80;;
67378;SDS011;54262;44.642;-0.974;2023-01-05T02:45:44;13.35;;;4.78;;
67378;SDS011;54262;44.642;-0.974;2023-01-05T02:48:10;7.63;;;4.20;;
67378;SDS011;54262;44.642;-0.974;2023-01-05T02:50:50;8.73;;;3.90;;
67378;SDS011;54262;44.642;-0.974;2023-01-05T02:53:19;6.68;;;3.38;;
67378;SDS011;54262;44.642;-0.974;2023-01-05T03:00:58;6.30;;;3.58;;
67378;SDS011;54262;44.642;-0.974;2023-01-05T03:08:33;4.68;;;3.80;;
67378;SDS011;54262;44.642;-0.974;2023-01-05T03:11:03;6.53;;;4.00;;
67378;SDS011;54262;44.642;-0.974;2023-01-05T03:16:30;4.40;;;3.72;;
67378;SDS011;54262;44.642;-0.974;2023-01-05T03:18:58;10.98;;;3.88;;
67378;SDS011;54262;44.642;-0.974;2023-01-05T03:21:45;8.05;;;3.85;;
67378;SDS011;54262;44.642;-0.974;2023-01-05T03:24:30;11.30;;;3.55;;
67378;SDS011;54262;44.642;-0.974;2023-01-05T03:27:15;5.85;;;4.15;;
67378;SDS011;54262;44.642;-0.974;2023-01-05T03:30:00;11.45;;;3.55;;
67378;SDS011;54262;44.642;-0.974;2023-01-05T03:32:48;5.97;;;3.45;;
67378;SDS011;54262;44.642;-0.974;2023-01-05T03:35:33;8.50;;;4.70;;
67378;SDS011;54262;44.642;-0.974;2023-01-05T03:40:48;5.70;;;3.55;;
67378;SDS011;54262;44.642;-0.974;2023-01-05T03:43:15;4.72;;;3.90;;
67378;SDS011;54262;44.642;-0.974;2023-01-05T03:45:45;9.98;;;5.00;;
67378;SDS011;54262;44.642;-0.974;2023-01-05T03:48:15;12.00;;;4.95;;
67378;SDS011;54262;44.642;-0.974;2023-01-05T03:50:42;10.93;;;5.30;;
67378;SDS011;54262;44.642;-0.974;2023-01-05T03:53:08;8.65;;;4.18;;
67378;SDS011;54262;44.642;-0.974;2023-01-05T03:55:34;7.80;;;4.95;;
67378;SDS011;54262;44.642;-0.974;2023-01-05T03:58:00;11.50;;;4.10;;
67378;SDS011;54262;44.642;-0.974;2023-01-05T04:00:26;8.93;;;3.63;;
67378;SDS011;54262;44.642;-0.974;2023-01-05T04:02:52;6.28;;;3.95;;
67378;SDS011;54262;44.642;-0.974;2023-01-05T04:05:18;4.97;;;3.85;;
67378;SDS011;54262;44.642;-0.974;2023-01-05T04:07:44;18.23;;;4.28;;
67378;SDS011;54262;44.642;-0.974;2023-01-05T04:10:10;18.90;;;3.92;;
67378;SDS011;54262;44.642;-0.974;2023-01-05T04:12:36;7.95;;;4.20;;
67378;SDS011;54262;44.642;-0.974;2023-01-05T04:15:02;12.00;;;3.83;;
67378;SDS011;54262;44.642;-0.974;2023-01-05T04:17:29;12.40;;;3.95;;
67378;SDS011;54262;44.642;-0.974;2023-01-05T04:19:55;6.78;;;4.13;;
67378;SDS011;54262;44.642;-0.974;2023-01-05T04:22:21;4.45;;;3.65;;
67378;SDS011;54262;44.642;-0.974;2023-01-05T04:24:47;9.43;;;3.80;;
67378;SDS011;54262;44.642;-0.974;2023-01-05T04:27:13;6.63;;;4.13;;
67378;SDS011;54262;44.642;-0.974;2023-01-05T04:29:39;4.90;;;3.88;;
67378;SDS011;54262;44.642;-0.974;2023-01-05T04:32:05;6.10;;;4.65;;
67378;SDS011;54262;44.642;-0.974;2023-01-05T04:34:31;7.70;;;3.75;;
67378;SDS011;54262;44.642;-0.974;2023-01-05T04:36:57;5.47;;;3.42;;
67378;SDS011;54262;44.642;-0.974;2023-01-05T04:39:23;5.18;;;3.67;;
67378;SDS011;54262;44.642;-0.974;2023-01-05T04:41:49;7.93;;;4.38;;
67378;SDS011;54262;44.642;-0.974;2023-01-05T04:44:15;6.35;;;3.08;;
67378;SDS011;54262;44.642;-0.974;2023-01-05T04:46:41;3.88;;;3.33;;
67378;SDS011;54262;44.642;-0.974;2023-01-05T04:49:08;4.53;;;3.22;;
67378;SDS011;54262;44.642;-0.974;2023-01-05T04:51:35;5.32;;;3.67;;
67378;SDS011;54262;44.642;-0.974;2023-01-05T04:54:01;9.00;;;3.75;;
67378;SDS011;54262;44.642;-0.974;2023-01-05T04:56:27;12.30;;;4.32;;
67378;SDS011;54262;44.642;-0.974;2023-01-05T04:58:53;10.52;;;4.25;;
67378;SDS011;54262;44.642;-0.974;2023-01-05T05:01:19;10.90;;;4.45;;
67378;SDS011;54262;44.642;-0.974;2023-01-05T05:03:45;8.93;;;5.55;;
67378;SDS011;54262;44.642;-0.974;2023-01-05T05:06:11;11.68;;;5.65;;
67378;SDS011;54262;44.642;-0.974;2023-01-05T05:08:37;10.25;;;4.63;;
67378;SDS011;54262;44.642;-0.974;2023-01-05T05:11:03;10.13;;;4.75;;
67378;SDS011;54262;44.642;-0.974;2023-01-05T05:13:29;7.00;;;3.55;;
67378;SDS011;54262;44.642;-0.974;2023-01-05T05:15:55;6.28;;;4.57;;
67378;SDS011;54262;44.642;-0.974;2023-01-05T05:18:21;9.05;;;4.47;;
67378;SDS011;54262;44.642;-0.974;2023-01-05T05:20:49;8.45;;;4.20;;
67378;SDS011;54262;44.642;-0.974;2023-01-05T05:23:15;9.55;;;4.38;;
67378;SDS011;54262;44.642;-0.974;2023-01-05T05:25:41;5.72;;;4.55;;
67378;SDS011;54262;44.642;-0.974;2023-01-05T05:28:07;6.25;;;4.50;;
67378;SDS011;54262;44.642;-0.974;2023-01-05T05:30:33;5.35;;;4.43;;
67378;SDS011;54262;44.642;-0.974;2023-01-05T05:32:59;8.25;;;5.75;;
67378;SDS011;54262;44.642;-0.974;2023-01-05T05:35:25;10.20;;;5.72;;
67378;SDS011;54262;44.642;-0.974;2023-01-05T05:37:51;7.68;;;6.28;;
67378;SDS011;54262;44.642;-0.974;2023-01-05T05:40:17;6.10;;;4.88;;
67378;SDS011;54262;44.642;-0.974;2023-01-05T05:42:43;6.93;;;4.78;;
67378;SDS011;54262;44.642;-0.974;2023-01-05T05:45:09;8.48;;;4.90;;
67378;SDS011;54262;44.642;-0.974;2023-01-05T05:47:36;6.95;;;4.28;;
67378;SDS011;54262;44.642;-0.974;2023-01-05T05:50:02;6.13;;;4.05;;
67378;SDS011;54262;44.642;-0.974;2023-01-05T05:52:28;5.07;;;3.90;;
67378;SDS011;54262;44.642;-0.974;2023-01-05T05:54:54;5.80;;;3.63;;
67378;SDS011;54262;44.642;-0.974;2023-01-05T05:57:20;6.88;;;3.45;;
67378;SDS011;54262;44.642;-0.974;2023-01-05T05:59:46;5.47;;;3.92;;
67378;SDS011;54262;44.642;-0.974;2023-01-05T06:02:12;9.35;;;3.42;;
67378;SDS011;54262;44.642;-0.974;2023-01-05T06:04:38;6.70;;;3.50;;
67378;SDS011;54262;44.642;-0.974;2023-01-05T06:07:04;5.88;;;3.53;;
67378;SDS011;54262;44.642;-0.974;2023-01-05T06:09:30;5.32;;;4.30;;
67378;SDS011;54262;44.642;-0.974;2023-01-05T06:11:56;7.10;;;3.92;;
67378;SDS011;54262;44.642;-0.974;2023-01-05T06:14:22;5.53;;;3.47;;
67378;SDS011;54262;44.642;-0.974;2023-01-05T06:16:48;5.70;;;4.10;;
67378;SDS011;54262;44.642;-0.974;2023-01-05T06:19:14;5.85;;;3.55;;
67378;SDS011;54262;44.642;-0.974;2023-01-05T06:21:40;7.70;;;4.07;;
67378;SDS011;54262;44.642;-0.974;2023-01-05T06:24:06;12.55;;;5.68;;
67378;SDS011;54262;44.642;-0.974;2023-01-05T06:26:33;7.50;;;6.88;;
67378;SDS011;54262;44.642;-0.974;2023-01-05T06:28:59;6.75;;;5.90;;
67378;SDS011;54262;44.642;-0.974;2023-01-05T06:31:25;4.65;;;4.00;;
67378;SDS011;54262;44.642;-0.974;2023-01-05T06:33:51;5.70;;;3.53;;
67378;SDS011;54262;44.642;-0.974;2023-01-05T06:36:17;7.00;;;3.72;;
67378;SDS011;54262;44.642;-0.974;2023-01-05T06:38:43;15.20;;;3.85;;
67378;SDS011;54262;44.642;-0.974;2023-01-05T06:41:09;9.48;;;3.83;;
67378;SDS011;54262;44.642;-0.974;2023-01-05T06:43:35;6.85;;;3.67;;
67378;SDS011;54262;44.642;-0.974;2023-01-05T06:46:01;5.15;;;3.35;;
67378;SDS011;54262;44.642;-0.974;2023-01-05T06:48:27;3.95;;;3.05;;
67378;SDS011;54262;44.642;-0.974;2023-01-05T06:50:53;4.90;;;3.60;;
67378;SDS011;54262;44.642;-0.974;2023-01-05T06:53:19;6.82;;;3.28;;
67378;SDS011;54262;44.642;-0.974;2023-01-05T06:55:45;4.97;;;3.25;;
67378;SDS011;54262;44.642;-0.974;2023-01-05T06:58:12;5.72;;;4.35;;
67378;SDS011;54262;44.642;-0.974;2023-01-05T07:00:38;5.72;;;3.53;;
67378;SDS011;54262;44.642;-0.974;2023-01-05T07:03:04;8.27;;;3.17;;
67378;SDS011;54262;44.642;-0.974;2023-01-05T07:05:31;3.97;;;3.00;;
67378;SDS011;54262;44.642;-0.974;2023-01-05T07:07:57;3.35;;;2.90;;
67378;SDS011;54262;44.642;-0.974;2023-01-05T07:10:23;8.18;;;2.85;;
67378;SDS011;54262;44.642;-0.974;2023-01-05T07:12:49;3.08;;;2.67;;
67378;SDS011;54262;44.642;-0.974;2023-01-05T07:15:15;3.10;;;2.90;;
67378;SDS011;54262;44.642;-0.974;2023-01-05T07:17:41;5.63;;;3.50;;
67378;SDS011;54262;44.642;-0.974;2023-01-05T07:20:07;3.78;;;2.90;;
67378;SDS011;54262;44.642;-0.974;2023-01-05T07:22:33;12.52;;;3.55;;
67378;SDS011;54262;44.642;-0.974;2023-01-05T07:24:59;9.80;;;3.50;;
67378;SDS011;54262;44.642;-0.974;2023-01-05T07:27:26;4.93;;;3.50;;
67378;SDS011;54262;44.642;-0.974;2023-01-05T07:29:52;7.70;;;3.28;;
67378;SDS011;54262;44.642;-0.974;2023-01-05T07:32:18;5.25;;;3.00;;
67378;SDS011;54262;44.642;-0.974;2023-01-05T07:34:44;7.22;;;3.38;;
67378;SDS011;54262;44.642;-0.974;2023-01-05T07:37:10;3.95;;;2.85;;
67378;SDS011;54262;44.642;-0.974;2023-01-05T07:39:36;3.22;;;2.90;;
67378;SDS011;54262;44.642;-0.974;2023-01-05T07:42:04;4.43;;;3.35;;
67378;SDS011;54262;44.642;-0.974;2023-01-05T07:44:30;3.40;;;3.10;;
67378;SDS011;54262;44.642;-0.974;2023-01-05T07:46:56;3.05;;;2.70;;
67378;SDS011;54262;44.642;-0.974;2023-01-05T07:49:22;8.07;;;3.20;;
67378;SDS011;54262;44.642;-0.974;2023-01-05T07:51:48;4.32;;;3.58;;
67378;SDS011;54262;44.642;-0.974;2023-01-05T07:54:14;12.48;;;3.90;;
67378;SDS011;54262;44.642;-0.974;2023-01-05T07:56:40;8.48;;;3.58;;
67378;SDS011;54262;44.642;-0.974;2023-01-05T07:59:06;5.93;;;3.30;;
67378;SDS011;54262;44.642;-0.974;2023-01-05T08:01:32;3.42;;;3.13;;
67378;SDS011;54262;44.642;-0.974;2023-01-05T08:03:58;3.08;;;2.80;;
67378;SDS011;54262;44.642;-0.974;2023-01-05T08:06:24;4.78;;;2.80;;
67378;SDS011;54262;44.642;-0.974;2023-01-05T08:08:51;4.55;;;3.15;;
67378;SDS011;54262;44.642;-0.974;2023-01-05T08:11:18;3.20;;;2.97;;
67378;SDS011;54262;44.642;-0.974;2023-01-05T08:13:45;9.00;;;2.80;;
67378;SDS011;54262;44.642;-0.974;2023-01-05T08:16:24;6.50;;;3.05;;
67378;SDS011;54262;44.642;-0.974;2023-01-05T08:18:50;4.10;;;3.28;;
67378;SDS011;54262;44.642;-0.974;2023-01-05T08:21:16;3.50;;;3.20;;
67378;SDS011;54262;44.642;-0.974;2023-01-05T08:23:42;3.97;;;3.05;;
67378;SDS011;54262;44.642;-0.974;2023-01-05T08:26:12;4.72;;;3.58;;
67378;SDS011;54262;44.642;-0.974;2023-01-05T08:28:39;12.05;;;3.20;;
67378;SDS011;54262;44.642;-0.974;2023-01-05T08:31:06;6.78;;;3.05;;
67378;SDS011;54262;44.642;-0.974;2023-01-05T08:33:33;3.75;;;3.40;;
67378;SDS011;54262;44.642;-0.974;2023-01-05T08:35:59;5.13;;;3.22;;
67378;SDS011;54262;44.642;-0.974;2023-01-05T08:38:25;7.70;;;2.92;;
67378;SDS011;54262;44.642;-0.974;2023-01-05T08:40:51;4.63;;;3.55;;
67378;SDS011;54262;44.642;-0.974;2023-01-05T08:43:18;4.80;;;2.83;;
67378;SDS011;54262;44.642;-0.974;2023-01-05T08:45:47;5.43;;;2.88;;
67378;SDS011;54262;44.642;-0.974;2023-01-05T08:48:16;3.10;;;2.90;;
67378;SDS011;54262;44.642;-0.974;2023-01-05T08:50:42;6.15;;;3.38;;
67378;SDS011;54262;44.642;-0.974;2023-01-05T08:53:08;3.33;;;3.03;;
67378;SDS011;54262;44.642;-0.974;2023-01-05T08:55:34;3.40;;;3.05;;
67378;SDS011;54262;44.642;-0.974;2023-01-05T08:58:00;4.43;;;3.08;;
67378;SDS011;54262;44.642;-0.974;2023-01-05T09:00:26;5.80;;;3.00;;
67378;SDS011;54262;44.642;-0.974;2023-01-05T09:02:52;6.82;;;3.38;;
67378;SDS011;54262;44.642;-0.974;2023-01-05T09:05:18;2.90;;;2.70;;
67378;SDS011;54262;44.642;-0.974;2023-01-05T09:07:44;5.85;;;2.80;;
67378;SDS011;54262;44.642;-0.974;2023-01-05T09:10:10;3.05;;;2.53;;
67378;SDS011;54262;44.642;-0.974;2023-01-05T09:12:37;3.38;;;2.38;;
67378;SDS011;54262;44.642;-0.974;2023-01-05T09:15:03;3.80;;;3.45;;
67378;SDS011;54262;44.642;-0.974;2023-01-05T09:17:29;11.65;;;3.53;;
67378;SDS011;54262;44.642;-0.974;2023-01-05T09:19:56;3.45;;;3.15;;
67378;SDS011;54262;44.642;-0.974;2023-01-05T09:22:22;3.88;;;2.40;;
67378;SDS011;54262;44.642;-0.974;2023-01-05T09:24:48;3.30;;;3.08;;
67378;SDS011;54262;44.642;-0.974;2023-01-05T09:27:14;3.13;;;2.92;;
67378;SDS011;54262;44.642;-0.974;2023-01-05T09:29:40;7.47;;;2.85;;
67378;SDS011;54262;44.642;-0.974;2023-01-05T09:32:06;6.43;;;2.97;;
67378;SDS011;54262;44.642;-0.974;2023-01-05T09:34:33;4.47;;;3.90;;
67378;SDS011;54262;44.642;-0.974;2023-01-05T09:36:59;4.07;;;3.63;;
67378;SDS011;54262;44.642;-0.974;2023-01-05T09:39:25;5.88;;;3.88;;
67378;SDS011;54262;44.642;-0.974;2023-01-05T09:41:52;6.18;;;3.53;;
67378;SDS011;54262;44.642;-0.974;2023-01-05T09:46:47;5.85;;;3.90;;
67378;SDS011;54262;44.642;-0.974;2023-01-05T09:49:15;8.07;;;4.47;;
67378;SDS011;54262;44.642;-0.974;2023-01-05T09:51:43;7.82;;;3.80;;
67378;SDS011;54262;44.642;-0.974;2023-01-05T09:54:13;11.55;;;3.58;;
67378;SDS011;54262;44.642;-0.974;2023-01-05T09:56:41;5.25;;;3.67;;
67378;SDS011;54262;44.642;-0.974;2023-01-05T09:59:25;5.72;;;3.30;;
67378;SDS011;54262;44.642;-0.974;2023-01-05T10:01:53;7.13;;;3.67;;
67378;SDS011;54262;44.642;-0.974;2023-01-05T10:04:20;5.13;;;3.25;;
67378;SDS011;54262;44.642;-0.974;2023-01-05T10:06:54;3.22;;;2.70;;
67378;SDS011;54262;44.642;-0.974;2023-01-05T10:11:50;7.57;;;3.65;;
67378;SDS011;54262;44.642;-0.974;2023-01-05T10:14:40;4.03;;;3.53;;
67378;SDS011;54262;44.642;-0.974;2023-01-05T10:17:16;8.45;;;4.25;;
67378;SDS011;54262;44.642;-0.974;2023-01-05T10:19:43;9.57;;;3.67;;
67378;SDS011;54262;44.642;-0.974;2023-01-05T10:22:38;4.60;;;4.15;;
67378;SDS011;54262;44.642;-0.974;2023-01-05T10:25:02;6.20;;;3.97;;
67378;SDS011;54262;44.642;-0.974;2023-01-05T10:27:32;11.35;;;2.05;;
67378;SDS011;54262;44.642;-0.974;2023-01-05T10:32:38;8.85;;;3.30;;
67378;SDS011;54262;44.642;-0.974;2023-01-05T10:40:22;9.02;;;2.67;;
67378;SDS011;54262;44.642;-0.974;2023-01-05T10:45:36;12.73;;;3.00;;
67378;SDS011;54262;44.642;-0.974;2023-01-05T10:48:08;11.38;;;3.13;;
67378;SDS011;54262;44.642;-0.974;2023-01-05T10:50:36;5.20;;;3.20;;
67378;SDS011;54262;44.642;-0.974;2023-01-05T10:53:10;9.52;;;3.42;;
67378;SDS011;54262;44.642;-0.974;2023-01-05T10:55:48;20.63;;;3.70;;
67378;SDS011;54262;44.642;-0.974;2023-01-05T10:58:23;8.18;;;3.45;;
67378;SDS011;54262;44.642;-0.974;2023-01-05T11:00:49;8.10;;;3.85;;
67378;SDS011;54262;44.642;-0.974;2023-01-05T11:03:17;5.88;;;3.63;;
67378;SDS011;54262;44.642;-0.974;2023-01-05T11:05:45;8.15;;;3.67;;
67378;SDS011;54262;44.642;-0.974;2023-01-05T11:08:18;11.18;;;4.15;;
67378;SDS011;54262;44.642;-0.974;2023-01-05T11:10:54;5.13;;;3.83;;
67378;SDS011;54262;44.642;-0.974;2023-01-05T11:13:28;8.55;;;3.22;;
67378;SDS011;54262;44.642;-0.974;2023-01-05T11:23:35;23.42;;;3.78;;
67378;SDS011;54262;44.642;-0.974;2023-01-05T11:29:04;17.17;;;4.07;;
67378;SDS011;54262;44.642;-0.974;2023-01-05T11:36:39;8.35;;;3.88;;
67378;SDS011;54262;44.642;-0.974;2023-01-05T11:39:11;9.18;;;4.05;;
67378;SDS011;54262;44.642;-0.974;2023-01-05T11:41:42;8.57;;;3.70;;
67378;SDS011;54262;44.642;-0.974;2023-01-05T11:44:10;9.18;;;4.03;;
67378;SDS011;54262;44.642;-0.974;2023-01-05T11:46:42;12.85;;;4.22;;
67378;SDS011;54262;44.642;-0.974;2023-01-05T11:49:08;11.95;;;4.45;;
67378;SDS011;54262;44.642;-0.974;2023-01-05T11:51:36;10.90;;;4.30;;
67378;SDS011;54262;44.642;-0.974;2023-01-05T11:54:02;18.10;;;4.35;;
67378;SDS011;54262;44.642;-0.974;2023-01-05T11:56:28;13.07;;;5.45;;
67378;SDS011;54262;44.642;-0.974;2023-01-05T11:58:55;8.60;;;4.28;;
67378;SDS011;54262;44.642;-0.974;2023-01-05T12:12:13;7.60;;;3.60;;
67378;SDS011;54262;44.642;-0.974;2023-01-05T12:17:46;10.23;;;4.00;;
67378;SDS011;54262;44.642;-0.974;2023-01-05T12:22:59;7.88;;;2.83;;
67378;SDS011;54262;44.642;-0.974;2023-01-05T12:49:11;11.43;;;3.35;;
67378;SDS011;54262;44.642;-0.974;2023-01-05T12:51:36;6.70;;;3.35;;
67378;SDS011;54262;44.642;-0.974;2023-01-05T12:54:12;5.18;;;4.57;;
67378;SDS011;54262;44.642;-0.974;2023-01-05T12:56:47;6.60;;;3.65;;
67378;SDS011;54262;44.642;-0.974;2023-01-05T12:59:25;9.57;;;3.45;;
67378;SDS011;54262;44.642;-0.974;2023-01-05T13:07:20;13.05;;;4.10;;
67378;SDS011;54262;44.642;-0.974;2023-01-05T13:09:46;10.00;;;4.50;;
67378;SDS011;54262;44.642;-0.974;2023-01-05T13:12:17;14.88;;;4.20;;
67378;SDS011;54262;44.642;-0.974;2023-01-05T13:14:44;12.63;;;3.58;;
67378;SDS011;54262;44.642;-0.974;2023-01-05T13:17:23;8.68;;;3.15;;
67378;SDS011;54262;44.642;-0.974;2023-01-05T13:22:23;11.95;;;3.42;;
67378;SDS011;54262;44.642;-0.974;2023-01-05T13:24:53;9.18;;;3.28;;
67378;SDS011;54262;44.642;-0.974;2023-01-05T13:27:21;10.02;;;3.30;;
67378;SDS011;54262;44.642;-0.974;2023-01-05T13:29:48;13.93;;;3.97;;
67378;SDS011;54262;44.642;-0.974;2023-01-05T13:32:39;8.95;;;3.47;;
67378;SDS011;54262;44.642;-0.974;2023-01-05T13:45:17;14.82;;;3.90;;
67378;SDS011;54262;44.642;-0.974;2023-01-05T13:52:52;4.35;;;2.72;;
67378;SDS011;54262;44.642;-0.974;2023-01-05T13:55:23;5.80;;;2.90;;
67378;SDS011;54262;44.642;-0.974;2023-01-05T13:57:50;3.35;;;2.75;;
67378;SDS011;54262;44.642;-0.974;2023-01-05T14:02:57;6.80;;;3.40;;
67378;SDS011;54262;44.642;-0.974;2023-01-05T14:07:54;5.03;;;3.13;;
67378;SDS011;54262;44.642;-0.974;2023-01-05T14:10:22;6.95;;;3.25;;
67378;SDS011;54262;44.642;-0.974;2023-01-05T14:12:49;8.23;;;3.22;;
67378;SDS011;54262;44.642;-0.974;2023-01-05T14:15:30;6.68;;;3.10;;
67378;SDS011;54262;44.642;-0.974;2023-01-05T14:18:00;8.65;;;2.90;;
67378;SDS011;54262;44.642;-0.974;2023-01-05T14:25:51;13.25;;;3.92;;
67378;SDS011;54262;44.642;-0.974;2023-01-05T14:30:50;10.95;;;4.30;;
67378;SDS011;54262;44.642;-0.974;2023-01-05T14:33:17;13.15;;;5.88;;
67378;SDS011;54262;44.642;-0.974;2023-01-05T14:35:44;21.73;;;9.85;;
67378;SDS011;54262;44.642;-0.974;2023-01-05T14:40:43;13.25;;;4.75;;
67378;SDS011;54262;44.642;-0.974;2023-01-05T14:45:54;5.13;;;3.33;;
67378;SDS011;54262;44.642;-0.974;2023-01-05T14:51:15;5.90;;;2.95;;
67378;SDS011;54262;44.642;-0.974;2023-01-05T14:53:42;10.30;;;3.45;;
67378;SDS011;54262;44.642;-0.974;2023-01-05T15:06:12;12.98;;;2.97;;
67378;SDS011;54262;44.642;-0.974;2023-01-05T15:17:05;8.75;;;3.42;;
67378;SDS011;54262;44.642;-0.974;2023-01-05T15:27:21;6.85;;;3.13;;
67378;SDS011;54262;44.642;-0.974;2023-01-05T15:29:58;7.15;;;2.85;;
67378;SDS011;54262;44.642;-0.974;2023-01-05T15:32:30;9.20;;;2.67;;
67378;SDS011;54262;44.642;-0.974;2023-01-05T15:35:03;6.35;;;3.00;;
67378;SDS011;54262;44.642;-0.974;2023-01-05T15:37:34;3.08;;;2.60;;
67378;SDS011;54262;44.642;-0.974;2023-01-05T15:40:01;13.38;;;5.82;;
67378;SDS011;54262;44.642;-0.974;2023-01-05T15:42:40;8.45;;;4.30;;
67378;SDS011;54262;44.642;-0.974;2023-01-05T15:45:08;3.88;;;2.65;;
67378;SDS011;54262;44.642;-0.974;2023-01-05T15:47:39;6.88;;;4.43;;
67378;SDS011;54262;44.642;-0.974;2023-01-05T15:50:06;8.85;;;4.07;;
67378;SDS011;54262;44.642;-0.974;2023-01-05T15:52:33;9.27;;;5.20;;
67378;SDS011;54262;44.642;-0.974;2023-01-05T15:55:20;16.90;;;6.78;;
67378;SDS011;54262;44.642;-0.974;2023-01-05T15:57:59;4.00;;;3.63;;
67378;SDS011;54262;44.642;-0.974;2023-01-05T16:00:28;12.07;;;3.70;;
67378;SDS011;54262;44.642;-0.974;2023-01-05T16:02:55;7.05;;;2.80;;
67378;SDS011;54262;44.642;-0.974;2023-01-05T16:05:22;10.18;;;3.55;;
67378;SDS011;54262;44.642;-0.974;2023-01-05T16:07:58;5.13;;;3.50;;
67378;SDS011;54262;44.642;-0.974;2023-01-05T16:10:34;8.68;;;4.57;;
67378;SDS011;54262;44.642;-0.974;2023-01-05T16:13:25;8.48;;;4.00;;
67378;SDS011;54262;44.642;-0.974;2023-01-05T16:15:48;10.75;;;4.47;;
67378;SDS011;54262;44.642;-0.974;2023-01-05T16:18:23;9.48;;;5.20;;
67378;SDS011;54262;44.642;-0.974;2023-01-05T16:20:50;8.23;;;7.35;;
67378;SDS011;54262;44.642;-0.974;2023-01-05T16:23:23;8.02;;;7.28;;
67378;SDS011;54262;44.642;-0.974;2023-01-05T16:25:52;8.57;;;7.70;;
67378;SDS011;54262;44.642;-0.974;2023-01-05T16:28:19;7.88;;;7.03;;
67378;SDS011;54262;44.642;-0.974;2023-01-05T16:30:47;6.25;;;4.03;;
67378;SDS011;54262;44.642;-0.974;2023-01-05T16:38:13;6.93;;;6.30;;
67378;SDS011;54262;44.642;-0.974;2023-01-05T16:45:44;9.32;;;8.65;;
67378;SDS011;54262;44.642;-0.974;2023-01-05T16:48:41;7.70;;;6.25;;
67378;SDS011;54262;44.642;-0.974;2023-01-05T16:51:06;7.65;;;5.40;;
67378;SDS011;54262;44.642;-0.974;2023-01-05T16:53:33;12.38;;;6.85;;
67378;SDS011;54262;44.642;-0.974;2023-01-05T16:56:00;6.35;;;5.75;;
67378;SDS011;54262;44.642;-0.974;2023-01-05T17:01:21;12.63;;;7.30;;
67378;SDS011;54262;44.642;-0.974;2023-01-05T17:03:44;9.98;;;9.18;;
67378;SDS011;54262;44.642;-0.974;2023-01-05T17:06:26;8.00;;;7.25;;
67378;SDS011;54262;44.642;-0.974;2023-01-05T17:08:53;8.60;;;7.88;;
67378;SDS011;54262;44.642;-0.974;2023-01-05T17:11:20;12.43;;;8.70;;
67378;SDS011;54262;44.642;-0.974;2023-01-05T17:13:47;7.72;;;7.13;;
67378;SDS011;54262;44.642;-0.974;2023-01-05T17:16:13;14.88;;;9.40;;
67378;SDS011;54262;44.642;-0.974;2023-01-05T17:18:40;9.65;;;7.80;;
67378;SDS011;54262;44.642;-0.974;2023-01-05T17:21:06;9.27;;;8.20;;
67378;SDS011;54262;44.642;-0.974;2023-01-05T17:23:34;11.50;;;9.85;;
67378;SDS011;54262;44.642;-0.974;2023-01-05T17:26:03;7.15;;;6.70;;
67378;SDS011;54262;44.642;-0.974;2023-01-05T17:28:30;6.53;;;5.47;;
67378;SDS011;54262;44.642;-0.974;2023-01-05T17:30:56;6.07;;;5.68;;
67378;SDS011;54262;44.642;-0.974;2023-01-05T17:33:22;6.28;;;5.78;;
67378;SDS011;54262;44.642;-0.974;2023-01-05T17:35:48;8.27;;;7.65;;
67378;SDS011;54262;44.642;-0.974;2023-01-05T17:38:15;7.25;;;6.72;;
67378;SDS011;54262;44.642;-0.974;2023-01-05T17:40:41;8.63;;;7.93;;
67378;SDS011;54262;44.642;-0.974;2023-01-05T17:43:07;8.25;;;6.47;;
67378;SDS011;54262;44.642;-0.974;2023-01-05T17:45:33;5.78;;;5.32;;
67378;SDS011;54262;44.642;-0.974;2023-01-05T17:48:00;8.38;;;6.75;;
67378;SDS011;54262;44.642;-0.974;2023-01-05T17:50:27;6.15;;;5.72;;
67378;SDS011;54262;44.642;-0.974;2023-01-05T17:52:55;7.70;;;7.00;;
67378;SDS011;54262;44.642;-0.974;2023-01-05T17:55:21;6.97;;;6.07;;
67378;SDS011;54262;44.642;-0.974;2023-01-05T17:57:47;8.82;;;8.13;;